Aviation Digital Data Service (ADDS)

Output produced by METARs form (1905 UTC 24 June 2017)
found at http://aviationweather.gov/adds/metars/
 
KAGC 241722Z 2418/2518 24012KT P6SM SCT060 
     FM250100 28005KT P6SM SCT250